Main page
METAR-TAF:

METAR-TAF

Airports :

Copenhagen Airport

Copenhagen, Denmark

latitude: 55-37N, longitude: 012-39E, elevation: 5 m

Current weather observation

The report was made 19 minutes ago, at 16:50 UTC
Wind 6 kt from the North/Northwest, varying between West/Northwest and North
Temperature 10°C
Humidity 76%
Pressure 1023 hPa
Visibility 10 km or more
no clouds below 1500 m and no cumulonimbus

METAR: EKCH 181650Z 33006KT 290V350 CAVOK 10/06 Q1023 NOSIG

Time: 19:09 (17:09 UTC)

Forecast

The report was made 6 hours and 9 minutes ago, at 11:00 UTC
Forecast valid from 18 at 12 UTC to 19 at 12 UTC
Wind 12 kt from the North/Northwest
Visibility 10 km or more
Scattered clouds at a height of 2500 ft

TAF: EKCH 181100Z 1812/1912 34012KT 9999 SCT025

Weather observations and forecasts of more than 4000 airports (METAR and TAF reports).

The available stations are represented by yellow and red dots on the map.

Hover mouse over dot to see the name of the station.

Then click to see weather observations and forecasts.

To change the map : click on the green buttons with a black cross to zoom in, on the green button with a dash to zoom out, or on the green arrows for adjacent maps.


METAR-TAF: